AirNav   Everest Fuels
 
 1130 users online  

01FL Cedar Knoll Flying Ranch Airport
Geneva, Florida, USA

GOING TO GENEVA?


FAA INFORMATION EFFECTIVE 10 SEPTEMBER 2020

Location

FAA Identifier: 01FL
Lat/Long: 28-46-54.9700N 081-09-33.2200W
28-46.916167N 081-09.553667W
28.7819361,-81.1592278
(estimated)
Elevation: 19 ft. / 6 m (estimated)
Variation: 04W (1995)
From city: 6 miles E of GENEVA, FL
Time zone: UTC -4 (UTC -5 during Standard Time)
Zip code: 32732

Airport Operations

Airport use: Private use. Permission required prior to landing
Activation date: 01/1997
Control tower: no
ARTCC: JACKSONVILLE CENTER
FSS: SAINT PETERSBURG FLIGHT SERVICE STATION
Attendance: IREG
Wind indicator: lighted
Segmented circle: yes
Lights: ACTVT MIRL RY 18/36 - 122.8.

Airport Communications

WX ASOS at SFB (4 nm W): PHONE 407-321-9384
WX ASOS at ORL (17 nm SW): 127.25 (407-658-6753)
WX AWOS-3 at DED (18 nm N): 119.575 (386-740-5811)
WX AWOS-3 at X21 (20 nm SE): 119.725 (321-385-0383)
WX AWOS-3 at EVB (20 nm NE): 124.625 (386-409-4705)

Nearby radio navigation aids

VOR radial/distance  VOR name  Freq  Var
ORLr033/17.1ORLANDO VORTAC112.2000E
OMNr184/31.4ORMOND BEACH VORTAC112.6000E

Airport Services

Runway Information

Runway 18/36

Dimensions: 3000 x 75 ft. / 914 x 23 m
Surface: turf
Runway edge lights: medium intensity
Runway edge markings: 18/36 EDGES & DSPLCD THLD MKD WITH MIRL INSIDE TIRES PAINTED WHITE.
RUNWAY 18  RUNWAY 36
Traffic pattern: leftright
Displaced threshold: no800 ft.

Airport Ownership and Management from official FAA records

Ownership: Privately-owned
Owner: BILL LOWERY
3000 W OSCEOLA RD
GENEVA, FL 32732
Phone 407-349-2183
CELL 407-947-5777
Manager: BILL LOWERY
3000 W OSCEOLA RD
GENEVA, FL 32732
Phone 407-349-2183

Airport Operational Statistics

Aircraft based on the field: 2
Single engine airplanes: 2
    

Additional Remarks

FOR CD CTC ORLANDO APCH AT 407-852-7553.

Instrument Procedures

There are no published instrument procedures at 01FL.

Some nearby airports with instrument procedures:

KSFB - Orlando Sanford International Airport (4 nm W)
KORL - Executive Airport (17 nm SW)
X50 - Massey Ranch Airpark (17 nm NE)
KDED - DeLand Municipal Airport-Sidney H Taylor Field (18 nm N)
X21 - Arthur Dunn Air Park (20 nm SE)
KEVB - New Smyrna Beach Municipal Airport (20 nm NE)
 
Loc | Ops | Rwys | IFR | FBO | Links
Com | Nav | Svcs | Stats | Notes


 
Area around 01FL (Cedar Knoll Flying Ranch Airport)
 
Road maps at: MapQuest Bing Google
 
Aerial photo
WARNING: Photo may not be current or correct
Aerial photo of 01FL (Cedar Knoll Flying Ranch Airport)
Photo taken 20-Nov-2010
looking due north.

Do you have a better or more recent aerial photo of Cedar Knoll Flying Ranch Airport that you would like to share? If so, please send us your photo.

 
Sectional chart

 
Airport distance calculator
Flying to Cedar Knoll Flying Ranch Airport? Find the distance to fly.

From to 01FL

Sunrise and sunset
Times for 24-Sep-2020
 Local
(UTC-4)
 Zulu
(UTC)
Morning civil twilight06:5210:52
Sunrise07:1611:16
Sunset19:1723:17
Evening civil twilight19:4123:41

Current date and time
Zulu (UTC)  24-Sep-2020 12:59:36
Local (UTC-4)  24-Sep-2020 08:59:36
 
METAR
KSFB 
3nm W 
241253Z 12005KT 10SM CLR 25/21 A3000 RMK AO2 SLP157 T02500211
KORL 
17nm SW 
241253Z 09003KT 10SM BKN060 26/23 A3000 RMK AO2 SLP162 T02610228
KDED 
18nm N 
241235Z AUTO 00000KT 10SM CLR 24/22 A3001 RMK AO2 T02420219
KEVB 
20nm NE 
241247Z 10SM SCT030 RMK AWOS OTS.
TAF
KSFB 
3nm W 
241149Z 2412/2512 13005KT P6SM SCT040 SCT060 BKN250 FM241500 14009KT P6SM SCT040 BKN060 BKN250 FM250200 14006KT P6SM SCT060 BKN100
NOTAMs
Click for the latest NOTAMs
NOTAMs are issued by the DoD/FAA and will open in a separate window not controlled by AirNav.

 

 
 

Would you like to see your business listed on this page?

 If your business provides an interesting product or service to pilots, flight crews, aircraft, or users of the Cedar Knoll Flying Ranch Airport, you should consider listing it here.  To start the listing process, click on the button below
 
Add a business
 

Other Pages about Cedar Knoll Flying Ranch Airport

www.bullgatorsflyin.com
 
Update a link
 
Copyright © AirNav, LLC. All rights reserved. Privacy Policy  Contact